Thunder radar more information blitzortung!


Radar de pluja more information rain snow radar


Visita la nostra xarxa de llocs de meteo:

Template documentation
and downloads

And another site



No particular awareness of the weather is required.    There are no Weather-warnings

Pagina Historial Weather Underground text

Diari Resum Octubre 4, 2017 Unitats:  Tant    Imperial   Mètric
« Previous Dia
SegĂźent Dia »
Diari Setmana Mensual Anual Personalitzada
  Maxima: Minima: Media:
Temperatura: 76.3 °F /  24.6 °C 61.5 °F /  16.4 °C 68.2 °F /  20.1 °C
Punt de rosada: 64.8 °F /  18.2 °C 58.1 °F /  14.5 °C 61.7 °F /  16.5 °C
Humitat: 91 % 66 % 80 %
Wind Speed: 10.4 mph /  16.7 km/h - 2.2 mph /  3.5 km/h
RĂ fegues de vent: 11 mph /  17.7 km/h - -
Vent:- - East
Pression baro: 30.3 in /  1026.0 hPa 30.2 in /  1021.9 hPa -
Precipitacions: 0 in /  0.0 mm    
Historical Graphs
 
 
Dades de taula per Octubre 4, 2017
Temps Temperatura Punt de rosada Pression baro Vent Wind Speed RĂ fegues de vent Humitat Rainfall Rate (Hourly)
00:00 66.4 °F /  19.1 °C 60.6 °F /  15.9 °C 30.2 in /  1022.9 hPa Calm     82 % 0 in /  0.0 mm
00:05 66.2 °F /  19.0 °C 60.4 °F /  15.8 °C 30.2 in /  1022.9 hPa SW 2.3 mph /  3.7 km/h 2.3 mph /  3.7 km/h 82 % 0 in /  0.0 mm
00:15 62.8 °F /  17.1 °C 58.8 °F /  14.9 °C 30.2 in /  1022.9 hPa Calm     87 % 0 in /  0.0 mm
00:25 62.8 °F /  17.1 °C 58.8 °F /  14.9 °C 30.2 in /  1022.9 hPa Calm   2 mph /  3.2 km/h 87 % 0 in /  0.0 mm
00:35 62.6 °F /  17.0 °C 58.6 °F /  14.8 °C 30.2 in /  1022.9 hPa Calm   1 mph /  1.6 km/h 87 % 0 in /  0.0 mm
00:45 62.4 °F /  16.9 °C 58.5 °F /  14.7 °C 30.2 in /  1022.9 hPa SSW 1 mph /  1.6 km/h 2 mph /  3.2 km/h 87 % 0 in /  0.0 mm
00:55 62.2 °F /  16.8 °C 58.3 °F /  14.6 °C 30.2 in /  1022.9 hPa SW 2 mph /  3.2 km/h 2 mph /  3.2 km/h 87 % 0 in /  0.0 mm
01:05 62.1 °F /  16.7 °C 58.1 °F /  14.5 °C 30.2 in /  1022.9 hPa SW 1 mph /  1.6 km/h 2 mph /  3.2 km/h 87 % 0 in /  0.0 mm
01:15 62.1 °F /  16.7 °C 58.5 °F /  14.7 °C 30.2 in /  1022.9 hPa SW 1 mph /  1.6 km/h 2 mph /  3.2 km/h 88 % 0 in /  0.0 mm
01:25 62.2 °F /  16.8 °C 58.6 °F /  14.8 °C 30.2 in /  1022.9 hPa Calm     88 % 0 in /  0.0 mm
01:35 62.2 °F /  16.8 °C 58.6 °F /  14.8 °C 30.2 in /  1022.9 hPa WSW 1 mph /  1.6 km/h 2 mph /  3.2 km/h 88 % 0 in /  0.0 mm
01:45 62.2 °F /  16.8 °C 58.6 °F /  14.8 °C 30.2 in /  1022.9 hPa Calm   1 mph /  1.6 km/h 88 % 0 in /  0.0 mm
01:55 62.1 °F /  16.7 °C 58.5 °F /  14.7 °C 30.2 in /  1022.9 hPa Calm   1 mph /  1.6 km/h 88 % 0 in /  0.0 mm
02:05 62.1 °F /  16.7 °C 58.8 °F /  14.9 °C 30.2 in /  1022.9 hPa Calm     89 % 0 in /  0.0 mm
02:15 62.1 °F /  16.7 °C 58.8 °F /  14.9 °C 30.2 in /  1022.9 hPa Calm     89 % 0 in /  0.0 mm
02:25 62.1 °F /  16.7 °C 58.8 °F /  14.9 °C 30.2 in /  1022.9 hPa Calm     89 % 0 in /  0.0 mm
02:35 62.1 °F /  16.7 °C 58.8 °F /  14.9 °C 30.2 in /  1022.9 hPa Calm     89 % 0 in /  0.0 mm
02:45 62.1 °F /  16.7 °C 58.8 °F /  14.9 °C 30.2 in /  1023.9 hPa Calm     89 % 0 in /  0.0 mm
02:55 61.9 °F /  16.6 °C 58.6 °F /  14.8 °C 30.2 in /  1022.9 hPa Calm     89 % 0 in /  0.0 mm
03:05 61.7 °F /  16.5 °C 58.5 °F /  14.7 °C 30.2 in /  1022.9 hPa Calm     89 % 0 in /  0.0 mm
03:15 61.5 °F /  16.4 °C 58.3 °F /  14.6 °C 30.2 in /  1022.9 hPa Calm     89 % 0 in /  0.0 mm
03:25 61.5 °F /  16.4 °C 58.6 °F /  14.8 °C 30.2 in /  1023.9 hPa Calm     90 % 0 in /  0.0 mm
03:35 61.7 °F /  16.5 °C 58.6 °F /  14.8 °C 30.2 in /  1023.9 hPa Calm     90 % 0 in /  0.0 mm
03:45 61.9 °F /  16.6 °C 58.8 °F /  14.9 °C 30.2 in /  1023.9 hPa Calm     90 % 0 in /  0.0 mm
03:55 63 °F /  17.2 °C 60.3 °F /  15.7 °C 30.2 in /  1023.9 hPa Calm     91 % 0 in /  0.0 mm
04:05 63.9 °F /  17.7 °C 61 °F /  16.1 °C 30.2 in /  1023.9 hPa Calm     90 % 0 in /  0.0 mm
04:15 64.4 °F /  18.0 °C 60.8 °F /  16.0 °C 30.2 in /  1023.9 hPa East 1 mph /  1.6 km/h 3 mph /  4.8 km/h 88 % 0 in /  0.0 mm
04:25 65.1 °F /  18.4 °C 61.2 °F /  16.2 °C 30.2 in /  1023.9 hPa Calm   3 mph /  4.8 km/h 87 % 0 in /  0.0 mm
04:35 64.8 °F /  18.2 °C 60.1 °F /  15.6 °C 30.2 in /  1023.9 hPa SSE 1 mph /  1.6 km/h 2 mph /  3.2 km/h 85 % 0 in /  0.0 mm
04:45 65.1 °F /  18.4 °C 60.4 °F /  15.8 °C 30.2 in /  1023.9 hPa Calm   1 mph /  1.6 km/h 85 % 0 in /  0.0 mm
04:55 67.3 °F /  19.6 °C 62.2 °F /  16.8 °C 30.2 in /  1023.9 hPa NW 1 mph /  1.6 km/h 2 mph /  3.2 km/h 84 % 0 in /  0.0 mm
05:05 68 °F /  20.0 °C 62.2 °F /  16.8 °C 30.2 in /  1023.9 hPa NNE 1 mph /  1.6 km/h 2 mph /  3.2 km/h 82 % 0 in /  0.0 mm
05:30 67.5 °F /  19.7 °C 60.6 °F /  15.9 °C 30.3 in /  1024.9 hPa ENE 1 mph /  1.6 km/h 2 mph /  3.2 km/h 79 % 0 in /  0.0 mm
05:40 67.8 °F /  19.9 °C 61.2 °F /  16.2 °C 30.3 in /  1024.9 hPa ENE 1 mph /  1.6 km/h 2 mph /  3.2 km/h 79 % 0 in /  0.0 mm
05:50 68 °F /  20.0 °C 61 °F /  16.1 °C 30.3 in /  1024.9 hPa East 1 mph /  1.6 km/h 3 mph /  4.8 km/h 78 % 0 in /  0.0 mm
06:00 68.2 °F /  20.1 °C 61.2 °F /  16.2 °C 30.3 in /  1024.9 hPa ENE 1 mph /  1.6 km/h 2 mph /  3.2 km/h 78 % 0 in /  0.0 mm
06:10 68.5 °F /  20.3 °C 61.3 °F /  16.3 °C 30.3 in /  1024.9 hPa NE 1 mph /  1.6 km/h 2 mph /  3.2 km/h 78 % 0 in /  0.0 mm
06:20 68.9 °F /  20.5 °C 61.9 °F /  16.6 °C 30.3 in /  1026.0 hPa East 3 mph /  4.8 km/h 4 mph /  6.4 km/h 78 % 0 in /  0.0 mm
06:30 69.6 °F /  20.9 °C 62.4 °F /  16.9 °C 30.3 in /  1024.9 hPa ENE 2 mph /  3.2 km/h 3 mph /  4.8 km/h 78 % 0 in /  0.0 mm
06:40 70.5 °F /  21.4 °C 63 °F /  17.2 °C 30.3 in /  1024.9 hPa ENE 2 mph /  3.2 km/h 4 mph /  6.4 km/h 77 % 0 in /  0.0 mm
06:50 71.2 °F /  21.8 °C 63.3 °F /  17.4 °C 30.3 in /  1024.9 hPa ENE 3 mph /  4.8 km/h 4 mph /  6.4 km/h 76 % 0 in /  0.0 mm
07:00 72.1 °F /  22.3 °C 64.2 °F /  17.9 °C 30.3 in /  1026.0 hPa ENE 2 mph /  3.2 km/h 4 mph /  6.4 km/h 76 % 0 in /  0.0 mm
07:10 73 °F /  22.8 °C 63.9 °F /  17.7 °C 30.3 in /  1026.0 hPa ESE 3 mph /  4.8 km/h 6 mph /  9.7 km/h 73 % 0 in /  0.0 mm
07:20 73.8 °F /  23.2 °C 64.6 °F /  18.1 °C 30.3 in /  1024.9 hPa ESE 1 mph /  1.6 km/h 3 mph /  4.8 km/h 73 % 0 in /  0.0 mm
07:30 73 °F /  22.8 °C 63.9 °F /  17.7 °C 30.3 in /  1024.9 hPa East 5 mph /  8.0 km/h 7 mph /  11.3 km/h 73 % 0 in /  0.0 mm
07:40 73.8 °F /  23.2 °C 64.2 °F /  17.9 °C 30.3 in /  1024.9 hPa ENE 3 mph /  4.8 km/h 4 mph /  6.4 km/h 72 % 0 in /  0.0 mm
07:50 73.9 °F /  23.3 °C 63.9 °F /  17.7 °C 30.3 in /  1024.9 hPa ENE 2 mph /  3.2 km/h 5 mph /  8.0 km/h 71 % 0 in /  0.0 mm
08:00 73.2 °F /  22.9 °C 63.7 °F /  17.6 °C 30.3 in /  1026.0 hPa ENE 3 mph /  4.8 km/h 6 mph /  9.7 km/h 72 % 0 in /  0.0 mm
08:10 73.2 °F /  22.9 °C 63.7 °F /  17.6 °C 30.3 in /  1026.0 hPa ENE 5 mph /  8.0 km/h 5 mph /  8.0 km/h 72 % 0 in /  0.0 mm
08:20 73.6 °F /  23.1 °C 64 °F /  17.8 °C 30.3 in /  1024.9 hPa ENE 3 mph /  4.8 km/h 4 mph /  6.4 km/h 72 % 0 in /  0.0 mm
08:30 74.7 °F /  23.7 °C 64.6 °F /  18.1 °C 30.3 in /  1024.9 hPa East 3 mph /  4.8 km/h 7 mph /  11.3 km/h 71 % 0 in /  0.0 mm
08:40 74.5 °F /  23.6 °C 64 °F /  17.8 °C 30.3 in /  1024.9 hPa East 7 mph /  11.3 km/h 8 mph /  12.9 km/h 70 % 0 in /  0.0 mm
08:50 74.7 °F /  23.7 °C 64.2 °F /  17.9 °C 30.3 in /  1024.9 hPa ESE 6 mph /  9.7 km/h 9 mph /  14.5 km/h 70 % 0 in /  0.0 mm
09:00 75.7 °F /  24.3 °C 64.8 °F /  18.2 °C 30.3 in /  1024.9 hPa ESE 3 mph /  4.8 km/h 6 mph /  9.7 km/h 69 % 0 in /  0.0 mm
09:10 74.8 °F /  23.8 °C 64 °F /  17.8 °C 30.3 in /  1024.9 hPa East 5 mph /  8.0 km/h 8 mph /  12.9 km/h 69 % 0 in /  0.0 mm
09:20 75.2 °F /  24.0 °C 63.9 °F /  17.7 °C 30.2 in /  1023.9 hPa ESE 6 mph /  9.7 km/h 8 mph /  12.9 km/h 68 % 0 in /  0.0 mm
09:30 76.3 °F /  24.6 °C 64.6 °F /  18.1 °C 30.2 in /  1023.9 hPa ESE 2 mph /  3.2 km/h 7 mph /  11.3 km/h 67 % 0 in /  0.0 mm
09:40 75.6 °F /  24.2 °C 63.3 °F /  17.4 °C 30.2 in /  1023.9 hPa ESE 3 mph /  4.8 km/h 4 mph /  6.4 km/h 66 % 0 in /  0.0 mm
09:50 74.5 °F /  23.6 °C 63.1 °F /  17.3 °C 30.2 in /  1023.9 hPa SE 7 mph /  11.3 km/h 9 mph /  14.5 km/h 68 % 0 in /  0.0 mm
10:00 73.6 °F /  23.1 °C 62.8 °F /  17.1 °C 30.2 in /  1023.9 hPa ESE 7 mph /  11.3 km/h 11 mph /  17.7 km/h 69 % 0 in /  0.0 mm
10:10 73.2 °F /  22.9 °C 63.1 °F /  17.3 °C 30.2 in /  1023.9 hPa ESE 7 mph /  11.3 km/h 10 mph /  16.1 km/h 71 % 0 in /  0.0 mm
10:12 67.3 °F /  19.6 °C 61 °F /  16.1 °C 30.2 in /  1023.9 hPa NE 2.9 mph /  4.7 km/h 2.9 mph /  4.7 km/h 80 % 0 in /  0.0 mm
10:13 67.3 °F /  19.6 °C 61 °F /  16.1 °C 30.2 in /  1023.9 hPa NE 3.5 mph /  5.6 km/h 3.5 mph /  5.6 km/h 80 % 0 in /  0.0 mm
10:18 67.3 °F /  19.6 °C 61 °F /  16.1 °C 30.3 in /  1024.9 hPa ENE 2.3 mph /  3.7 km/h 2.3 mph /  3.7 km/h 80 % 0 in /  0.0 mm
10:20 73.6 °F /  23.1 °C 63.7 °F /  17.6 °C 30.2 in /  1023.9 hPa East 5 mph /  8.0 km/h 9 mph /  14.5 km/h 71 % 0 in /  0.0 mm
10:23 67.5 °F /  19.7 °C 61.2 °F /  16.2 °C 30.3 in /  1024.9 hPa ENE 1.6 mph /  2.6 km/h 2.2 mph /  3.5 km/h 80 % 0 in /  0.0 mm
10:28 67.5 °F /  19.7 °C 61.2 °F /  16.2 °C 30.3 in /  1024.9 hPa ENE 1.6 mph /  2.6 km/h 2.2 mph /  3.5 km/h 80 % 0 in /  0.0 mm
10:30 73.4 °F /  23.0 °C 63 °F /  17.2 °C 30.2 in /  1023.9 hPa ESE 8 mph /  12.9 km/h 8 mph /  12.9 km/h 70 % 0 in /  0.0 mm
10:33 67.5 °F /  19.7 °C 61.2 °F /  16.2 °C 30.3 in /  1024.9 hPa ENE 1.6 mph /  2.6 km/h 2.2 mph /  3.5 km/h 80 % 0 in /  0.0 mm
10:38 67.5 °F /  19.7 °C 61.2 °F /  16.2 °C 30.3 in /  1024.9 hPa ENE 1.6 mph /  2.6 km/h 2.2 mph /  3.5 km/h 80 % 0 in /  0.0 mm
10:40 72.7 °F /  22.6 °C 63.1 °F /  17.3 °C 30.2 in /  1023.9 hPa East 5 mph /  8.0 km/h 6 mph /  9.7 km/h 72 % 0 in /  0.0 mm
10:43 67.5 °F /  19.7 °C 61.2 °F /  16.2 °C 30.3 in /  1024.9 hPa ENE 1.6 mph /  2.6 km/h 2.2 mph /  3.5 km/h 80 % 0 in /  0.0 mm
10:48 67.5 °F /  19.7 °C 61.2 °F /  16.2 °C 30.3 in /  1024.9 hPa ENE 1.6 mph /  2.6 km/h 2.2 mph /  3.5 km/h 80 % 0 in /  0.0 mm
10:50 72.7 °F /  22.6 °C 63.1 °F /  17.3 °C 30.2 in /  1023.9 hPa East 7 mph /  11.3 km/h 9 mph /  14.5 km/h 72 % 0 in /  0.0 mm
10:53 67.5 °F /  19.7 °C 61.2 °F /  16.2 °C 30.3 in /  1024.9 hPa ENE 1.6 mph /  2.6 km/h 2.2 mph /  3.5 km/h 80 % 0 in /  0.0 mm
10:58 67.5 °F /  19.7 °C 61.2 °F /  16.2 °C 30.3 in /  1024.9 hPa ENE 1.6 mph /  2.6 km/h 2.2 mph /  3.5 km/h 80 % 0 in /  0.0 mm
11:00 72.7 °F /  22.6 °C 63.1 °F /  17.3 °C 30.2 in /  1022.9 hPa ESE 3 mph /  4.8 km/h 8 mph /  12.9 km/h 72 % 0 in /  0.0 mm
11:03 67.5 °F /  19.7 °C 61.2 °F /  16.2 °C 30.3 in /  1024.9 hPa ENE 1.6 mph /  2.6 km/h 2.2 mph /  3.5 km/h 80 % 0 in /  0.0 mm
11:08 67.5 °F /  19.7 °C 61.2 °F /  16.2 °C 30.3 in /  1024.9 hPa ENE 1.6 mph /  2.6 km/h 2.2 mph /  3.5 km/h 80 % 0 in /  0.0 mm
11:10 72.3 °F /  22.4 °C 62.8 °F /  17.1 °C 30.2 in /  1022.9 hPa ESE 6 mph /  9.7 km/h 10 mph /  16.1 km/h 72 % 0 in /  0.0 mm
11:13 67.5 °F /  19.7 °C 61.2 °F /  16.2 °C 30.3 in /  1024.9 hPa ENE 1.6 mph /  2.6 km/h 2.2 mph /  3.5 km/h 80 % 0 in /  0.0 mm
11:18 67.5 °F /  19.7 °C 61.2 °F /  16.2 °C 30.3 in /  1024.9 hPa ENE 1.6 mph /  2.6 km/h 2.2 mph /  3.5 km/h 80 % 0 in /  0.0 mm
11:20 72.3 °F /  22.4 °C 62.8 °F /  17.1 °C 30.2 in /  1023.9 hPa ESE 3 mph /  4.8 km/h 7 mph /  11.3 km/h 72 % 0 in /  0.0 mm
11:23 67.5 °F /  19.7 °C 61.2 °F /  16.2 °C 30.3 in /  1024.9 hPa ENE 1.6 mph /  2.6 km/h 2.2 mph /  3.5 km/h 80 % 0 in /  0.0 mm
11:28 67.5 °F /  19.7 °C 61.2 °F /  16.2 °C 30.3 in /  1024.9 hPa ENE 1.6 mph /  2.6 km/h 2.2 mph /  3.5 km/h 80 % 0 in /  0.0 mm
11:30 71.8 °F /  22.1 °C 62.2 °F /  16.8 °C 30.2 in /  1022.9 hPa ESE 6 mph /  9.7 km/h 9 mph /  14.5 km/h 72 % 0 in /  0.0 mm
11:33 67.5 °F /  19.7 °C 61.2 °F /  16.2 °C 30.3 in /  1024.9 hPa ENE 1.6 mph /  2.6 km/h 2.2 mph /  3.5 km/h 80 % 0 in /  0.0 mm
11:38 67.5 °F /  19.7 °C 61.2 °F /  16.2 °C 30.3 in /  1024.9 hPa ENE 1.6 mph /  2.6 km/h 2.2 mph /  3.5 km/h 80 % 0 in /  0.0 mm
11:40 71.8 °F /  22.1 °C 62.2 °F /  16.8 °C 30.2 in /  1022.9 hPa ESE 7 mph /  11.3 km/h 8 mph /  12.9 km/h 72 % 0 in /  0.0 mm
11:43 67.5 °F /  19.7 °C 61.2 °F /  16.2 °C 30.3 in /  1024.9 hPa ENE 1.6 mph /  2.6 km/h 2.2 mph /  3.5 km/h 80 % 0 in /  0.0 mm
11:48 67.5 °F /  19.7 °C 61.2 °F /  16.2 °C 30.3 in /  1024.9 hPa ENE 1.6 mph /  2.6 km/h 2.2 mph /  3.5 km/h 80 % 0 in /  0.0 mm
11:53 67.5 °F /  19.7 °C 61.2 °F /  16.2 °C 30.3 in /  1024.9 hPa ENE 1.6 mph /  2.6 km/h 2.2 mph /  3.5 km/h 80 % 0 in /  0.0 mm
11:58 67.5 °F /  19.7 °C 61.2 °F /  16.2 °C 30.3 in /  1024.9 hPa ENE 1.6 mph /  2.6 km/h 2.2 mph /  3.5 km/h 80 % 0 in /  0.0 mm
12:03 67.5 °F /  19.7 °C 61.2 °F /  16.2 °C 30.3 in /  1024.9 hPa ENE 1.6 mph /  2.6 km/h 2.2 mph /  3.5 km/h 80 % 0 in /  0.0 mm
12:08 67.5 °F /  19.7 °C 61.2 °F /  16.2 °C 30.3 in /  1024.9 hPa ENE 1.6 mph /  2.6 km/h 2.2 mph /  3.5 km/h 80 % 0 in /  0.0 mm
12:13 67.5 °F /  19.7 °C 61.2 °F /  16.2 °C 30.3 in /  1024.9 hPa ENE 1.6 mph /  2.6 km/h 2.2 mph /  3.5 km/h 80 % 0 in /  0.0 mm
12:18 67.5 °F /  19.7 °C 61.2 °F /  16.2 °C 30.3 in /  1024.9 hPa ENE 1.6 mph /  2.6 km/h 2.2 mph /  3.5 km/h 80 % 0 in /  0.0 mm
12:23 67.5 °F /  19.7 °C 61.2 °F /  16.2 °C 30.3 in /  1024.9 hPa ENE 1.6 mph /  2.6 km/h 2.2 mph /  3.5 km/h 80 % 0 in /  0.0 mm
12:28 67.5 °F /  19.7 °C 61.2 °F /  16.2 °C 30.3 in /  1024.9 hPa ENE 1.6 mph /  2.6 km/h 2.2 mph /  3.5 km/h 80 % 0 in /  0.0 mm
12:33 67.5 °F /  19.7 °C 61.2 °F /  16.2 °C 30.3 in /  1024.9 hPa ENE 1.6 mph /  2.6 km/h 2.2 mph /  3.5 km/h 80 % 0 in /  0.0 mm
12:38 67.5 °F /  19.7 °C 61.2 °F /  16.2 °C 30.3 in /  1024.9 hPa ENE 1.6 mph /  2.6 km/h 2.2 mph /  3.5 km/h 80 % 0 in /  0.0 mm
12:43 67.5 °F /  19.7 °C 61.2 °F /  16.2 °C 30.3 in /  1024.9 hPa ENE 1.6 mph /  2.6 km/h 2.2 mph /  3.5 km/h 80 % 0 in /  0.0 mm
12:48 67.5 °F /  19.7 °C 61.2 °F /  16.2 °C 30.3 in /  1024.9 hPa ENE 1.6 mph /  2.6 km/h 2.2 mph /  3.5 km/h 80 % 0 in /  0.0 mm
12:53 67.5 °F /  19.7 °C 61.2 °F /  16.2 °C 30.3 in /  1024.9 hPa ENE 1.6 mph /  2.6 km/h 2.2 mph /  3.5 km/h 80 % 0 in /  0.0 mm
12:58 67.5 °F /  19.7 °C 61.2 °F /  16.2 °C 30.3 in /  1024.9 hPa ENE 1.6 mph /  2.6 km/h 2.2 mph /  3.5 km/h 80 % 0 in /  0.0 mm
13:03 67.5 °F /  19.7 °C 61.2 °F /  16.2 °C 30.3 in /  1024.9 hPa ENE 1.6 mph /  2.6 km/h 2.2 mph /  3.5 km/h 80 % 0 in /  0.0 mm
13:08 67.5 °F /  19.7 °C 61.2 °F /  16.2 °C 30.3 in /  1024.9 hPa ENE 1.6 mph /  2.6 km/h 2.2 mph /  3.5 km/h 80 % 0 in /  0.0 mm
13:13 67.5 °F /  19.7 °C 61.2 °F /  16.2 °C 30.3 in /  1024.9 hPa ENE 1.6 mph /  2.6 km/h 2.2 mph /  3.5 km/h 80 % 0 in /  0.0 mm
13:23 67.5 °F /  19.7 °C 61.2 °F /  16.2 °C 30.3 in /  1024.9 hPa ENE 1.6 mph /  2.6 km/h 2.2 mph /  3.5 km/h 80 % 0 in /  0.0 mm
13:28 67.5 °F /  19.7 °C 61.2 °F /  16.2 °C 30.3 in /  1024.9 hPa ENE 1.6 mph /  2.6 km/h 2.2 mph /  3.5 km/h 80 % 0 in /  0.0 mm
13:33 67.5 °F /  19.7 °C 61.2 °F /  16.2 °C 30.3 in /  1024.9 hPa ENE 1.6 mph /  2.6 km/h 2.2 mph /  3.5 km/h 80 % 0 in /  0.0 mm
13:38 67.5 °F /  19.7 °C 61.2 °F /  16.2 °C 30.3 in /  1024.9 hPa ENE 1.6 mph /  2.6 km/h 2.2 mph /  3.5 km/h 80 % 0 in /  0.0 mm
13:43 67.5 °F /  19.7 °C 61.2 °F /  16.2 °C 30.3 in /  1024.9 hPa ENE 1.6 mph /  2.6 km/h 2.2 mph /  3.5 km/h 80 % 0 in /  0.0 mm
13:48 67.5 °F /  19.7 °C 61.2 °F /  16.2 °C 30.3 in /  1024.9 hPa ENE 1.6 mph /  2.6 km/h 2.2 mph /  3.5 km/h 80 % 0 in /  0.0 mm
13:53 67.5 °F /  19.7 °C 61.2 °F /  16.2 °C 30.3 in /  1024.9 hPa ENE 1.6 mph /  2.6 km/h 2.2 mph /  3.5 km/h 80 % 0 in /  0.0 mm
13:58 67.5 °F /  19.7 °C 61.2 °F /  16.2 °C 30.3 in /  1024.9 hPa ENE 1.6 mph /  2.6 km/h 2.2 mph /  3.5 km/h 80 % 0 in /  0.0 mm
14:03 67.5 °F /  19.7 °C 61.2 °F /  16.2 °C 30.3 in /  1024.9 hPa ENE 1.6 mph /  2.6 km/h 2.2 mph /  3.5 km/h 80 % 0 in /  0.0 mm
14:08 67.5 °F /  19.7 °C 61.2 °F /  16.2 °C 30.3 in /  1024.9 hPa ENE 1.6 mph /  2.6 km/h 2.2 mph /  3.5 km/h 80 % 0 in /  0.0 mm
14:13 67.5 °F /  19.7 °C 61.2 °F /  16.2 °C 30.3 in /  1024.9 hPa ENE 1.6 mph /  2.6 km/h 2.2 mph /  3.5 km/h 80 % 0 in /  0.0 mm
14:18 67.5 °F /  19.7 °C 61.2 °F /  16.2 °C 30.3 in /  1024.9 hPa ENE 1.6 mph /  2.6 km/h 2.2 mph /  3.5 km/h 80 % 0 in /  0.0 mm
14:23 67.5 °F /  19.7 °C 61.2 °F /  16.2 °C 30.3 in /  1024.9 hPa ENE 1.6 mph /  2.6 km/h 2.2 mph /  3.5 km/h 80 % 0 in /  0.0 mm
14:28 67.5 °F /  19.7 °C 61.2 °F /  16.2 °C 30.3 in /  1024.9 hPa ENE 1.6 mph /  2.6 km/h 2.2 mph /  3.5 km/h 80 % 0 in /  0.0 mm
14:33 67.5 °F /  19.7 °C 61.2 °F /  16.2 °C 30.3 in /  1024.9 hPa ENE 1.6 mph /  2.6 km/h 2.2 mph /  3.5 km/h 80 % 0 in /  0.0 mm
14:38 67.5 °F /  19.7 °C 61.2 °F /  16.2 °C 30.3 in /  1024.9 hPa ENE 1.6 mph /  2.6 km/h 2.2 mph /  3.5 km/h 80 % 0 in /  0.0 mm
14:43 67.5 °F /  19.7 °C 61.2 °F /  16.2 °C 30.3 in /  1024.9 hPa ENE 1.6 mph /  2.6 km/h 2.2 mph /  3.5 km/h 80 % 0 in /  0.0 mm
14:48 67.5 °F /  19.7 °C 61.2 °F /  16.2 °C 30.3 in /  1024.9 hPa ENE 1.6 mph /  2.6 km/h 2.2 mph /  3.5 km/h 80 % 0 in /  0.0 mm
14:53 67.5 °F /  19.7 °C 61.2 °F /  16.2 °C 30.3 in /  1024.9 hPa ENE 1.6 mph /  2.6 km/h 2.2 mph /  3.5 km/h 80 % 0 in /  0.0 mm
14:58 67.5 °F /  19.7 °C 61.2 °F /  16.2 °C 30.3 in /  1024.9 hPa ENE 1.6 mph /  2.6 km/h 2.2 mph /  3.5 km/h 80 % 0 in /  0.0 mm
15:03 67.5 °F /  19.7 °C 61.2 °F /  16.2 °C 30.3 in /  1024.9 hPa ENE 1.6 mph /  2.6 km/h 2.2 mph /  3.5 km/h 80 % 0 in /  0.0 mm
15:08 67.5 °F /  19.7 °C 61.2 °F /  16.2 °C 30.3 in /  1024.9 hPa ENE 1.6 mph /  2.6 km/h 2.2 mph /  3.5 km/h 80 % 0 in /  0.0 mm
15:13 67.5 °F /  19.7 °C 61.2 °F /  16.2 °C 30.3 in /  1024.9 hPa ENE 1.6 mph /  2.6 km/h 2.2 mph /  3.5 km/h 80 % 0 in /  0.0 mm
15:18 67.5 °F /  19.7 °C 61.2 °F /  16.2 °C 30.3 in /  1024.9 hPa ENE 1.6 mph /  2.6 km/h 2.2 mph /  3.5 km/h 80 % 0 in /  0.0 mm
15:23 67.5 °F /  19.7 °C 61.2 °F /  16.2 °C 30.3 in /  1024.9 hPa ENE 1.6 mph /  2.6 km/h 2.2 mph /  3.5 km/h 80 % 0 in /  0.0 mm
15:28 67.5 °F /  19.7 °C 61.2 °F /  16.2 °C 30.3 in /  1024.9 hPa ENE 1.6 mph /  2.6 km/h 2.2 mph /  3.5 km/h 80 % 0 in /  0.0 mm
15:33 67.5 °F /  19.7 °C 61.2 °F /  16.2 °C 30.3 in /  1024.9 hPa ENE 1.6 mph /  2.6 km/h 2.2 mph /  3.5 km/h 80 % 0 in /  0.0 mm
15:38 67.5 °F /  19.7 °C 61.2 °F /  16.2 °C 30.3 in /  1024.9 hPa ENE 1.6 mph /  2.6 km/h 2.2 mph /  3.5 km/h 80 % 0 in /  0.0 mm
15:43 67.5 °F /  19.7 °C 61.2 °F /  16.2 °C 30.3 in /  1024.9 hPa ENE 1.6 mph /  2.6 km/h 2.2 mph /  3.5 km/h 80 % 0 in /  0.0 mm
15:48 67.5 °F /  19.7 °C 61.2 °F /  16.2 °C 30.3 in /  1024.9 hPa ENE 1.6 mph /  2.6 km/h 2.2 mph /  3.5 km/h 80 % 0 in /  0.0 mm
15:53 67.5 °F /  19.7 °C 61.2 °F /  16.2 °C 30.3 in /  1024.9 hPa ENE 1.6 mph /  2.6 km/h 2.2 mph /  3.5 km/h 80 % 0 in /  0.0 mm
15:59 67.5 °F /  19.7 °C 61.2 °F /  16.2 °C 30.3 in /  1024.9 hPa ENE 1.6 mph /  2.6 km/h 2.2 mph /  3.5 km/h 80 % 0 in /  0.0 mm
16:04 67.5 °F /  19.7 °C 61.2 °F /  16.2 °C 30.3 in /  1024.9 hPa ENE 1.6 mph /  2.6 km/h 2.2 mph /  3.5 km/h 80 % 0 in /  0.0 mm
16:09 67.5 °F /  19.7 °C 61.2 °F /  16.2 °C 30.3 in /  1024.9 hPa ENE 1.6 mph /  2.6 km/h 2.2 mph /  3.5 km/h 80 % 0 in /  0.0 mm
16:14 67.5 °F /  19.7 °C 61.2 °F /  16.2 °C 30.3 in /  1024.9 hPa ENE 1.6 mph /  2.6 km/h 2.2 mph /  3.5 km/h 80 % 0 in /  0.0 mm
16:19 67.5 °F /  19.7 °C 61.2 °F /  16.2 °C 30.3 in /  1024.9 hPa ENE 1.6 mph /  2.6 km/h 2.2 mph /  3.5 km/h 80 % 0 in /  0.0 mm
16:24 67.5 °F /  19.7 °C 61.2 °F /  16.2 °C 30.3 in /  1024.9 hPa ENE 1.6 mph /  2.6 km/h 2.2 mph /  3.5 km/h 80 % 0 in /  0.0 mm
16:29 67.5 °F /  19.7 °C 61.2 °F /  16.2 °C 30.3 in /  1024.9 hPa ENE 1.6 mph /  2.6 km/h 2.2 mph /  3.5 km/h 80 % 0 in /  0.0 mm
16:34 67.5 °F /  19.7 °C 61.2 °F /  16.2 °C 30.3 in /  1024.9 hPa ENE 1.6 mph /  2.6 km/h 2.2 mph /  3.5 km/h 80 % 0 in /  0.0 mm
16:40 71.8 °F /  22.1 °C 62.2 °F /  16.8 °C 30.2 in /  1022.9 hPa ESE 6.4 mph /  10.3 km/h 6.7 mph /  10.8 km/h 72 % 0 in /  0.0 mm
16:45 72.1 °F /  22.3 °C 63 °F /  17.2 °C 30.2 in /  1022.9 hPa NNE 5.8 mph /  9.3 km/h 5.8 mph /  9.3 km/h 73 % 0 in /  0.0 mm
16:50 72.1 °F /  22.3 °C 63 °F /  17.2 °C 30.2 in /  1022.9 hPa ESE 9.2 mph /  14.8 km/h 9.2 mph /  14.8 km/h 73 % 0 in /  0.0 mm
16:55 72 °F /  22.2 °C 62.8 °F /  17.1 °C 30.2 in /  1022.9 hPa ESE 10.4 mph /  16.7 km/h 10.4 mph /  16.7 km/h 73 % 0 in /  0.0 mm
17:00 71.8 °F /  22.1 °C 62.8 °F /  17.1 °C 30.2 in /  1022.9 hPa ENE 9.2 mph /  14.8 km/h 9.2 mph /  14.8 km/h 73 % 0 in /  0.0 mm
17:05 72 °F /  22.2 °C 62.8 °F /  17.1 °C 30.2 in /  1022.9 hPa ENE 9.2 mph /  14.8 km/h 9.2 mph /  14.8 km/h 73 % 0 in /  0.0 mm
17:10 72.1 °F /  22.3 °C 63 °F /  17.2 °C 30.2 in /  1022.9 hPa ESE 6 mph /  9.7 km/h 6 mph /  9.7 km/h 73 % 0 in /  0.0 mm
17:15 72 °F /  22.2 °C 62.8 °F /  17.1 °C 30.2 in /  1022.9 hPa East 5.8 mph /  9.3 km/h 6 mph /  9.7 km/h 73 % 0 in /  0.0 mm
17:20 72 °F /  22.2 °C 62.8 °F /  17.1 °C 30.2 in /  1022.9 hPa East 8.1 mph /  13.0 km/h 8.1 mph /  13.0 km/h 73 % 0 in /  0.0 mm
17:25 71.8 °F /  22.1 °C 62.8 °F /  17.1 °C 30.2 in /  1022.9 hPa East 6.4 mph /  10.3 km/h 6.4 mph /  10.3 km/h 73 % 0 in /  0.0 mm
17:30 71.6 °F /  22.0 °C 63 °F /  17.2 °C 30.2 in /  1022.9 hPa ESE 8.1 mph /  13.0 km/h 8.1 mph /  13.0 km/h 74 % 0 in /  0.0 mm
17:35 71.6 °F /  22.0 °C 63 °F /  17.2 °C 30.2 in /  1022.9 hPa East 5.8 mph /  9.3 km/h 5.8 mph /  9.3 km/h 74 % 0 in /  0.0 mm
17:40 71.6 °F /  22.0 °C 63 °F /  17.2 °C 30.2 in /  1022.9 hPa East 5.8 mph /  9.3 km/h 5.8 mph /  9.3 km/h 74 % 0 in /  0.0 mm
17:45 71.6 °F /  22.0 °C 63 °F /  17.2 °C 30.2 in /  1022.9 hPa North 5.6 mph /  9.0 km/h 5.6 mph /  9.0 km/h 74 % 0 in /  0.0 mm
17:50 71.2 °F /  21.8 °C 63 °F /  17.2 °C 30.2 in /  1022.9 hPa ENE 5.8 mph /  9.3 km/h 5.8 mph /  9.3 km/h 75 % 0 in /  0.0 mm
17:55 71.2 °F /  21.8 °C 63 °F /  17.2 °C 30.2 in /  1022.9 hPa SE 4.6 mph /  7.4 km/h 4.6 mph /  7.4 km/h 75 % 0 in /  0.0 mm
18:00 71.2 °F /  21.8 °C 63 °F /  17.2 °C 30.2 in /  1022.9 hPa ENE 6.9 mph /  11.1 km/h 6.9 mph /  11.1 km/h 75 % 0 in /  0.0 mm
18:05 71.2 °F /  21.8 °C 63 °F /  17.2 °C 30.2 in /  1022.9 hPa East 4.6 mph /  7.4 km/h 4.6 mph /  7.4 km/h 75 % 0 in /  0.0 mm
18:10 71.2 °F /  21.8 °C 63 °F /  17.2 °C 30.2 in /  1022.9 hPa ENE 4.6 mph /  7.4 km/h 4.6 mph /  7.4 km/h 75 % 0 in /  0.0 mm
18:15 71.1 °F /  21.7 °C 63.1 °F /  17.3 °C 30.2 in /  1023.9 hPa ESE 4.7 mph /  7.6 km/h 4.7 mph /  7.6 km/h 76 % 0 in /  0.0 mm
18:20 71.1 °F /  21.7 °C 63.1 °F /  17.3 °C 30.2 in /  1023.9 hPa ENE 5.8 mph /  9.3 km/h 5.8 mph /  9.3 km/h 76 % 0 in /  0.0 mm
18:25 70.9 °F /  21.6 °C 63 °F /  17.2 °C 30.2 in /  1023.9 hPa East 8.1 mph /  13.0 km/h 8.1 mph /  13.0 km/h 76 % 0 in /  0.0 mm
18:30 70.9 °F /  21.6 °C 63 °F /  17.2 °C 30.2 in /  1023.9 hPa ENE 4.6 mph /  7.4 km/h 4.6 mph /  7.4 km/h 76 % 0 in /  0.0 mm
18:35 70.9 °F /  21.6 °C 63.3 °F /  17.4 °C 30.2 in /  1023.9 hPa East 4.3 mph /  6.9 km/h 4.3 mph /  6.9 km/h 77 % 0 in /  0.0 mm
18:40 70.7 °F /  21.5 °C 63.1 °F /  17.3 °C 30.2 in /  1023.9 hPa East 5.8 mph /  9.3 km/h 5.8 mph /  9.3 km/h 77 % 0 in /  0.0 mm
18:45 70.7 °F /  21.5 °C 63.1 °F /  17.3 °C 30.2 in /  1022.9 hPa ENE 5.8 mph /  9.3 km/h 5.8 mph /  9.3 km/h 77 % 0 in /  0.0 mm
18:50 70.7 °F /  21.5 °C 63.1 °F /  17.3 °C 30.2 in /  1022.9 hPa NNE 4.6 mph /  7.4 km/h 4.6 mph /  7.4 km/h 77 % 0 in /  0.0 mm
18:55 70.5 °F /  21.4 °C 63.3 °F /  17.4 °C 30.2 in /  1022.9 hPa ESE 5.8 mph /  9.3 km/h 5.8 mph /  9.3 km/h 78 % 0 in /  0.0 mm
19:00 70.5 °F /  21.4 °C 63.3 °F /  17.4 °C 30.2 in /  1022.9 hPa NE 5.8 mph /  9.3 km/h 5.8 mph /  9.3 km/h 78 % 0 in /  0.0 mm
19:05 70.3 °F /  21.3 °C 63.1 °F /  17.3 °C 30.2 in /  1022.9 hPa ESE 5.8 mph /  9.3 km/h 5.8 mph /  9.3 km/h 78 % 0 in /  0.0 mm
19:10 70.3 °F /  21.3 °C 63.1 °F /  17.3 °C 30.2 in /  1022.9 hPa SE 3.3 mph /  5.3 km/h 3.3 mph /  5.3 km/h 78 % 0 in /  0.0 mm
19:15 70.3 °F /  21.3 °C 63.1 °F /  17.3 °C 30.2 in /  1023.9 hPa East 3.5 mph /  5.6 km/h 3.5 mph /  5.6 km/h 78 % 0 in /  0.0 mm
19:20 67.1 °F /  19.5 °C 62.8 °F /  17.1 °C 30.2 in /  1023.9 hPa Calm     86 % 0 in /  0.0 mm
19:25 70.3 °F /  21.3 °C 63.5 °F /  17.5 °C 30.2 in /  1023.9 hPa ESE 3.6 mph /  5.8 km/h 3.6 mph /  5.8 km/h 79 % 0 in /  0.0 mm
19:30 70.3 °F /  21.3 °C 63.5 °F /  17.5 °C 30.2 in /  1023.9 hPa NNE 1.2 mph /  1.9 km/h   79 % 0 in /  0.0 mm
19:35 70.2 °F /  21.2 °C 63.3 °F /  17.4 °C 30.2 in /  1023.9 hPa SE 2.3 mph /  3.7 km/h 2.3 mph /  3.7 km/h 79 % 0 in /  0.0 mm
19:40 70.3 °F /  21.3 °C 63.5 °F /  17.5 °C 30.2 in /  1023.9 hPa Calm     79 % 0 in /  0.0 mm
19:50 70.2 °F /  21.2 °C 63 °F /  17.2 °C 30.2 in /  1023.9 hPa WSW 3.6 mph /  5.8 km/h 3.6 mph /  5.8 km/h 78 % 0 in /  0.0 mm
19:55 70.2 °F /  21.2 °C 63 °F /  17.2 °C 30.2 in /  1023.9 hPa SW 1.2 mph /  1.9 km/h   78 % 0 in /  0.0 mm
20:00 70.2 °F /  21.2 °C 62.6 °F /  17.0 °C 30.2 in /  1022.9 hPa SW 2.3 mph /  3.7 km/h 2.3 mph /  3.7 km/h 77 % 0 in /  0.0 mm
20:05 70 °F /  21.1 °C 62.4 °F /  16.9 °C 30.2 in /  1022.9 hPa SW 3.1 mph /  5.0 km/h 3.1 mph /  5.0 km/h 77 % 0 in /  0.0 mm
20:10 70 °F /  21.1 °C 62.4 °F /  16.9 °C 30.2 in /  1022.9 hPa SW 1.6 mph /  2.6 km/h   77 % 0 in /  0.0 mm
20:15 69.8 °F /  21.0 °C 62.2 °F /  16.8 °C 30.2 in /  1023.9 hPa SW 1.6 mph /  2.6 km/h 1.6 mph /  2.6 km/h 77 % 0 in /  0.0 mm
20:20 69.6 °F /  20.9 °C 62.4 °F /  16.9 °C 30.2 in /  1023.9 hPa SW 1.2 mph /  1.9 km/h   78 % 0 in /  0.0 mm
20:25 69.4 °F /  20.8 °C 62.2 °F /  16.8 °C 30.2 in /  1023.9 hPa Calm     78 % 0 in /  0.0 mm
20:30 69.4 °F /  20.8 °C 62.2 °F /  16.8 °C 30.2 in /  1023.9 hPa SW 2.3 mph /  3.7 km/h 2.3 mph /  3.7 km/h 78 % 0 in /  0.0 mm
20:35 69.3 °F /  20.7 °C 62.1 °F /  16.7 °C 30.2 in /  1023.9 hPa Calm     78 % 0 in /  0.0 mm
20:40 69.1 °F /  20.6 °C 62.2 °F /  16.8 °C 30.2 in /  1023.9 hPa Calm     79 % 0 in /  0.0 mm
20:45 68.9 °F /  20.5 °C 62.1 °F /  16.7 °C 30.2 in /  1022.9 hPa Calm     79 % 0 in /  0.0 mm
20:50 68.7 °F /  20.4 °C 61.9 °F /  16.6 °C 30.2 in /  1022.9 hPa Calm     79 % 0 in /  0.0 mm
20:55 68.7 °F /  20.4 °C 61.9 °F /  16.6 °C 30.2 in /  1022.9 hPa Calm     79 % 0 in /  0.0 mm
21:00 68.5 °F /  20.3 °C 61.9 °F /  16.6 °C 30.2 in /  1023.9 hPa Calm     79 % 0 in /  0.0 mm
21:05 68.4 °F /  20.2 °C 61.9 °F /  16.6 °C 30.2 in /  1023.9 hPa Calm     80 % 0 in /  0.0 mm
21:08 68.4 °F /  20.2 °C 61.9 °F /  16.6 °C 30.2 in /  1023.9 hPa Calm     80 % 0 in /  0.0 mm
21:10 66.7 °F /  19.3 °C 62.8 °F /  17.1 °C 30.2 in /  1023.9 hPa Calm     87 % 0 in /  0.0 mm
21:13 68.4 °F /  20.2 °C 61.9 °F /  16.6 °C 30.2 in /  1023.9 hPa Calm     80 % 0 in /  0.0 mm
21:18 68.4 °F /  20.2 °C 61.9 °F /  16.6 °C 30.2 in /  1023.9 hPa Calm     80 % 0 in /  0.0 mm
21:20 66.6 °F /  19.2 °C 62.6 °F /  17.0 °C 30.2 in /  1022.9 hPa Calm     87 % 0 in /  0.0 mm
21:23 68.4 °F /  20.2 °C 62.2 °F /  16.8 °C 30.2 in /  1023.9 hPa Calm     81 % 0 in /  0.0 mm
21:28 68.7 °F /  20.4 °C 62.8 °F /  17.1 °C 30.2 in /  1023.9 hPa ESE 1.2 mph /  1.9 km/h   81 % 0 in /  0.0 mm
21:30 66.4 °F /  19.1 °C 62.4 °F /  16.9 °C 30.2 in /  1022.9 hPa Calm     87 % 0 in /  0.0 mm
21:33 68.5 °F /  20.3 °C 62.4 °F /  16.9 °C 30.2 in /  1023.9 hPa Calm     81 % 0 in /  0.0 mm
21:38 68.5 °F /  20.3 °C 62.4 °F /  16.9 °C 30.2 in /  1023.9 hPa Calm     81 % 0 in /  0.0 mm
21:40 66.4 °F /  19.1 °C 62.4 °F /  16.9 °C 30.2 in /  1022.9 hPa SW 2 mph /  3.2 km/h 2 mph /  3.2 km/h 87 % 0 in /  0.0 mm
21:43 68.5 °F /  20.3 °C 62.4 °F /  16.9 °C 30.2 in /  1023.9 hPa East 2.6 mph /  4.2 km/h 2.6 mph /  4.2 km/h 81 % 0 in /  0.0 mm
21:48 68.4 °F /  20.2 °C 62.2 °F /  16.8 °C 30.2 in /  1023.9 hPa ENE 1.2 mph /  1.9 km/h 1.4 mph /  2.3 km/h 81 % 0 in /  0.0 mm
21:50 66.2 °F /  19.0 °C 62.2 °F /  16.8 °C 30.2 in /  1022.9 hPa Calm   2 mph /  3.2 km/h 87 % 0 in /  0.0 mm
21:53 68.2 °F /  20.1 °C 62.1 °F /  16.7 °C 30.2 in /  1023.9 hPa East 2.3 mph /  3.7 km/h 2.3 mph /  3.7 km/h 81 % 0 in /  0.0 mm
21:54 68.2 °F /  20.1 °C 62.1 °F /  16.7 °C 30.2 in /  1023.9 hPa East 2.3 mph /  3.7 km/h 2.3 mph /  3.7 km/h 81 % 0 in /  0.0 mm
21:59 68.2 °F /  20.1 °C 62.1 °F /  16.7 °C 30.2 in /  1023.9 hPa East 2.3 mph /  3.7 km/h 2.3 mph /  3.7 km/h 81 % 0 in /  0.0 mm
22:00 65.8 °F /  18.8 °C 62.2 °F /  16.8 °C 30.2 in /  1022.9 hPa WSW 1 mph /  1.6 km/h 3 mph /  4.8 km/h 88 % 0 in /  0.0 mm
22:04 68 °F /  20.0 °C 62.2 °F /  16.8 °C 30.2 in /  1023.9 hPa South 1.2 mph /  1.9 km/h   82 % 0 in /  0.0 mm
22:10 65.5 °F /  18.6 °C 61.9 °F /  16.6 °C 30.2 in /  1022.9 hPa WSW 1 mph /  1.6 km/h 3 mph /  4.8 km/h 88 % 0 in /  0.0 mm
22:14 67.5 °F /  19.7 °C 61.9 °F /  16.6 °C 30.2 in /  1023.9 hPa Calm     82 % 0 in /  0.0 mm
22:19 67.5 °F /  19.7 °C 61.9 °F /  16.6 °C 30.2 in /  1023.9 hPa SE 1.2 mph /  1.9 km/h   82 % 0 in /  0.0 mm
22:20 64.9 °F /  18.3 °C 61.3 °F /  16.3 °C 30.2 in /  1022.9 hPa WSW 1 mph /  1.6 km/h 2 mph /  3.2 km/h 88 % 0 in /  0.0 mm
22:24 67.6 °F /  19.8 °C 62.2 °F /  16.8 °C 30.2 in /  1023.9 hPa Calm     83 % 0 in /  0.0 mm
22:30 64.8 °F /  18.2 °C 61.2 °F /  16.2 °C 30.2 in /  1021.9 hPa WSW 1 mph /  1.6 km/h 2 mph /  3.2 km/h 88 % 0 in /  0.0 mm
22:34 67.1 °F /  19.5 °C 61.9 °F /  16.6 °C 30.3 in /  1024.9 hPa Calm     83 % 0 in /  0.0 mm
22:39 67.1 °F /  19.5 °C 61.9 °F /  16.6 °C 30.3 in /  1024.9 hPa Calm     83 % 0 in /  0.0 mm
22:40 64.6 °F /  18.1 °C 61 °F /  16.1 °C 30.2 in /  1021.9 hPa WSW 2 mph /  3.2 km/h 3 mph /  4.8 km/h 88 % 0 in /  0.0 mm
22:44 67.1 °F /  19.5 °C 61.9 °F /  16.6 °C 30.3 in /  1024.9 hPa Calm     83 % 0 in /  0.0 mm
22:49 66.9 °F /  19.4 °C 61.9 °F /  16.6 °C 30.3 in /  1024.9 hPa Calm     84 % 0 in /  0.0 mm
22:50 64.4 °F /  18.0 °C 60.8 °F /  16.0 °C 30.2 in /  1021.9 hPa WSW 1 mph /  1.6 km/h 3 mph /  4.8 km/h 88 % 0 in /  0.0 mm
22:54 66.9 °F /  19.4 °C 61.9 °F /  16.6 °C 30.3 in /  1024.9 hPa Calm     84 % 0 in /  0.0 mm
22:59 66.7 °F /  19.3 °C 61.7 °F /  16.5 °C 30.3 in /  1024.9 hPa Calm     84 % 0 in /  0.0 mm
23:04 66.9 °F /  19.4 °C 61.9 °F /  16.6 °C 30.3 in /  1024.9 hPa East 1.2 mph /  1.9 km/h   84 % 0 in /  0.0 mm
23:09 66.9 °F /  19.4 °C 62.2 °F /  16.8 °C 30.3 in /  1024.9 hPa Calm     85 % 0 in /  0.0 mm
23:10 63.7 °F /  17.6 °C 60.1 °F /  15.6 °C 30.2 in /  1021.9 hPa WSW 1 mph /  1.6 km/h 3 mph /  4.8 km/h 88 % 0 in /  0.0 mm
23:14 66.9 °F /  19.4 °C 62.2 °F /  16.8 °C 30.3 in /  1024.9 hPa Calm     85 % 0 in /  0.0 mm
23:20 63.7 °F /  17.6 °C 59.7 °F /  15.4 °C 30.2 in /  1021.9 hPa WSW 1 mph /  1.6 km/h 2 mph /  3.2 km/h 87 % 0 in /  0.0 mm
23:24 66.7 °F /  19.3 °C 62.1 °F /  16.7 °C 30.2 in /  1023.9 hPa ENE 1.6 mph /  2.6 km/h   85 % 0 in /  0.0 mm
23:29 66.7 °F /  19.3 °C 62.1 °F /  16.7 °C 30.2 in /  1023.9 hPa Calm     85 % 0 in /  0.0 mm
23:30 63.5 °F /  17.5 °C 59.5 °F /  15.3 °C 30.2 in /  1021.9 hPa Calm   1 mph /  1.6 km/h 87 % 0 in /  0.0 mm
23:34 66.7 °F /  19.3 °C 62.4 °F /  16.9 °C 30.2 in /  1023.9 hPa Calm     86 % 0 in /  0.0 mm
23:39 66.9 °F /  19.4 °C 62.6 °F /  17.0 °C 30.2 in /  1023.9 hPa Calm     86 % 0 in /  0.0 mm
23:40 63.5 °F /  17.5 °C 59.5 °F /  15.3 °C 30.2 in /  1021.9 hPa Calm   2 mph /  3.2 km/h 87 % 0 in /  0.0 mm
23:44 66.9 °F /  19.4 °C 62.6 °F /  17.0 °C 30.2 in /  1023.9 hPa Calm     86 % 0 in /  0.0 mm
23:49 66.9 °F /  19.4 °C 62.6 °F /  17.0 °C 30.2 in /  1023.9 hPa Calm     86 % 0 in /  0.0 mm
23:50 63.1 °F /  17.3 °C 59.2 °F /  15.1 °C 30.2 in /  1021.9 hPa Calm     87 % 0 in /  0.0 mm
23:54 66.9 °F /  19.4 °C 62.6 °F /  17.0 °C 30.2 in /  1023.9 hPa Calm     86 % 0 in /  0.0 mm
23:59 66.9 °F /  19.4 °C 62.6 °F /  17.0 °C 30.3 in /  1024.9 hPa Calm     86 % 0 in /  0.0 mm
Meteo Sesrovires
Elogis d' Weather Underground - 3.75 mb

Guio original per  Jim McMurry - jmcmurry@mwt.net Adaptat per a la plantilla per  Wim van der Kuil - Leuven-Template.eu

Trobareu la nostra informacio del temps tambe a:

Weather Underground

AWEKAS